Time;durP1;ratioP1;P1;durP2;ratioP2;P2;SDS_P1;SDS_P2;PMS_P1;PMS_P2;Temp;Humidity;BMP_temperature;BMP_pressure;BME280_temperature;BME280_humidity;BME280_pressure;Samples;Min_cycle;Max_cycle;Signal;HPM_P1;HPM_P2
2023/11/17 00:00:11;;;;;;;1.45;1.35;;;10.70;99.90;;;;;;4987700;28;20047;-77
2023/11/17 00:02:38;;;;;;;2.95;1.27;;;10.70;99.90;;;;;;5003374;28;20125;-78
2023/11/17 00:05:06;;;;;;;1.77;1.25;;;10.70;99.90;;;;;;4990501;28;20049;-78
2023/11/17 00:07:32;;;;;;;1.73;1.63;;;10.80;99.90;;;;;;5007227;28;20057;-78
2023/11/17 00:09:59;;;;;;;1.95;1.40;;;10.70;99.90;;;;;;4995565;28;20054;-77
2023/11/17 00:12:26;;;;;;;1.75;1.60;;;10.60;99.90;;;;;;4995050;28;20054;-78
2023/11/17 00:14:53;;;;;;;1.88;1.50;;;10.50;99.90;;;;;;4990337;28;20570;-79
2023/11/17 00:17:19;;;;;;;1.98;1.77;;;10.40;99.90;;;;;;4987533;28;20109;-79
2023/11/17 00:19:46;;;;;;;2.30;1.90;;;10.30;99.90;;;;;;5003484;28;20057;-78
2023/11/17 00:22:13;;;;;;;2.28;1.63;;;10.40;99.90;;;;;;5002664;28;20054;-78
2023/11/17 00:24:41;;;;;;;5.78;1.98;;;10.40;99.90;;;;;;5002092;28;20470;-79
2023/11/17 00:27:09;;;;;;;1.58;1.48;;;10.40;99.90;;;;;;4999375;28;20108;-78
2023/11/17 00:29:37;;;;;;;3.35;1.63;;;10.40;99.90;;;;;;4993379;28;20081;-79
2023/11/17 00:32:05;;;;;;;2.17;1.30;;;10.50;99.90;;;;;;4989191;28;20046;-78
2023/11/17 00:34:32;;;;;;;1.85;1.40;;;10.40;99.90;;;;;;5014865;28;20096;-78
2023/11/17 00:37:03;;;;;;;2.17;1.42;;;10.40;99.90;;;;;;5002856;28;20148;-79
2023/11/17 00:39:32;;;;;;;1.40;1.30;;;10.40;99.90;;;;;;5000232;28;20240;-77
2023/11/17 00:41:58;;;;;;;1.77;1.63;;;10.30;99.90;;;;;;5010919;28;20054;-79
2023/11/17 00:44:25;;;;;;;1.70;1.45;;;10.40;99.90;;;;;;4998042;28;20051;-80
2023/11/17 00:46:53;;;;;;;1.60;1.50;;;10.40;99.90;;;;;;4997881;28;20050;-80
2023/11/17 00:49:20;;;;;;;1.42;1.33;;;10.40;99.90;;;;;;4996922;28;20046;-78
2023/11/17 00:51:48;;;;;;;1.85;1.55;;;10.30;99.90;;;;;;4998124;28;20042;-79
2023/11/17 00:54:15;;;;;;;1.60;1.38;;;10.20;99.90;;;;;;4997702;28;20580;-79
2023/11/17 00:56:42;;;;;;;1.60;1.50;;;10.10;99.90;;;;;;4998025;28;20096;-79
2023/11/17 00:59:11;;;;;;;1.58;1.35;;;10.10;99.90;;;;;;4997055;28;20077;-80
2023/11/17 01:01:40;;;;;;;2.10;1.77;;;10.00;99.90;;;;;;4997462;28;20053;-78
2023/11/17 01:04:07;;;;;;;2.00;1.80;;;10.10;99.90;;;;;;4996839;28;20050;-78
2023/11/17 01:06:34;;;;;;;2.00;1.80;;;10.10;99.90;;;;;;4997041;28;20049;-78
2023/11/17 01:09:03;;;;;;;2.22;2.00;;;10.10;99.90;;;;;;4999784;28;20046;-79
2023/11/17 01:11:30;;;;;;;1.70;1.60;;;10.10;99.90;;;;;;4999257;28;20165;-78
2023/11/17 01:13:57;;;;;;;1.50;1.35;;;10.20;99.90;;;;;;4999865;28;20494;-77
2023/11/17 01:16:24;;;;;;;2.13;1.92;;;10.20;99.90;;;;;;4998296;28;20057;-75
2023/11/17 01:18:51;;;;;;;1.25;1.15;;;10.20;99.90;;;;;;4997276;28;20050;-79
2023/11/17 01:21:18;;;;;;;1.30;1.20;;;10.20;99.90;;;;;;4996769;28;20109;-78
2023/11/17 01:23:44;;;;;;;2.00;1.40;;;10.20;99.90;;;;;;4997269;28;20042;-78
2023/11/17 01:26:11;;;;;;;1.38;1.27;;;10.30;99.90;;;;;;4996530;28;20097;-77
2023/11/17 01:28:38;;;;;;;1.23;1.02;;;10.20;99.90;;;;;;4995412;28;20046;-77
2023/11/17 01:31:04;;;;;;;3.65;1.45;;;10.20;99.90;;;;;;4995992;28;20050;-78
2023/11/17 01:33:31;;;;;;;0.73;0.73;;;10.20;99.90;;;;;;4995888;28;20595;-79
2023/11/17 01:35:58;;;;;;;0.77;0.57;;;10.10;99.90;;;;;;4998107;28;20097;-78
2023/11/17 01:38:26;;;;;;;1.30;0.60;;;10.10;99.90;;;;;;4996252;28;20050;-79
2023/11/17 01:40:56;;;;;;;1.35;0.30;;;10.00;99.90;;;;;;5054317;22;20417;-79
2023/11/17 01:43:24;;;;;;;3.50;0.50;;;9.90;99.90;;;;;;5034996;28;20054;-79
2023/11/17 01:45:52;;;;;;;1.35;0.40;;;10.00;99.90;;;;;;5044140;28;20045;-79
2023/11/17 01:48:19;;;;;;;1.35;0.50;;;9.90;99.90;;;;;;5047086;28;20073;-79
2023/11/17 01:50:48;;;;;;;1.30;0.20;;;9.90;99.90;;;;;;5046073;28;20056;-79
2023/11/17 01:53:19;;;;;;;0.28;0.28;;;9.90;99.90;;;;;;5042203;28;20049;-81
2023/11/17 01:55:46;;;;;;;0.45;0.20;;;9.90;99.90;;;;;;5039353;28;20402;-80
2023/11/17 01:58:13;;;;;;;1.15;0.28;;;9.90;99.90;;;;;;5033364;28;20422;-80
2023/11/17 02:00:41;;;;;;;0.20;0.20;;;10.00;99.90;;;;;;5036618;28;20048;-80
2023/11/17 02:03:08;;;;;;;0.20;0.20;;;10.00;99.90;;;;;;5043442;28;20072;-79
2023/11/17 02:05:35;;;;;;;2.00;0.22;;;10.00;99.90;;;;;;5045925;28;20041;-78
2023/11/17 02:08:21;;;;;;;0.40;0.40;;;10.00;99.90;;;;;;5042318;28;20049;-79
2023/11/17 02:11:20;;;;;;;2.83;0.20;;;10.00;99.90;;;;;;5033154;28;20049;-79
2023/11/17 02:14:02;;;;;;;1.27;0.35;;;10.00;99.90;;;;;;5034625;28;20042;-81
2023/11/17 02:16:33;;;;;;;0.20;0.20;;;9.90;99.90;;;;;;5049005;28;20071;-79
2023/11/17 02:19:00;;;;;;;0.28;0.28;;;9.90;99.90;;;;;;5045026;28;20045;-79
2023/11/17 02:21:31;;;;;;;0.20;0.20;;;9.90;99.90;;;;;;5043815;28;20082;-79
2023/11/17 02:24:06;;;;;;;0.73;0.38;;;9.80;99.90;;;;;;5037555;28;20524;-80
2023/11/17 02:26:48;;;;;;;0.30;0.30;;;9.80;99.90;;;;;;5036922;28;20050;-79
2023/11/17 02:29:27;;;;;;;0.30;0.30;;;9.80;99.90;;;;;;5030092;28;20050;-80
2023/11/17 02:31:57;;;;;;;0.30;0.30;;;9.70;99.90;;;;;;5048421;28;20136;-81
2023/11/17 02:34:25;;;;;;;1.45;0.30;;;9.70;99.90;;;;;;5043852;28;20062;-78
2023/11/17 02:36:53;;;;;;;0.30;0.30;;;9.70;99.90;;;;;;5041812;28;20049;-79
2023/11/17 02:39:26;;;;;;;0.40;0.40;;;9.60;99.90;;;;;;5035979;28;20053;-79
2023/11/17 02:41:58;;;;;;;2.38;0.30;;;9.60;99.90;;;;;;5034585;28;20045;-80
2023/11/17 02:44:33;;;;;;;0.20;0.20;;;9.60;99.90;;;;;;5038083;28;20045;-80
2023/11/17 02:47:03;;;;;;;0.35;0.30;;;9.60;99.90;;;;;;5046913;28;20041;-78
2023/11/17 02:49:46;;;;;;;1.70;0.20;;;9.60;99.90;;;;;;5044264;28;20042;-80
2023/11/17 02:52:26;;;;;;;0.20;0.20;;;9.50;99.90;;;;;;5038176;28;20559;-79
2023/11/17 02:54:54;;;;;;;1.17;0.20;;;9.50;99.90;;;;;;5033406;28;20041;-80
2023/11/17 02:57:24;;;;;;;0.28;0.28;;;9.40;99.90;;;;;;5031575;28;20049;-80
2023/11/17 02:59:51;;;;;;;0.28;0.28;;;9.50;99.90;;;;;;5044008;28;20037;-80
2023/11/17 03:02:19;;;;;;;0.22;0.22;;;9.40;99.90;;;;;;5044489;28;20049;-79
2023/11/17 03:04:52;;;;;;;0.20;0.20;;;9.40;99.90;;;;;;5043525;28;20484;-80
2023/11/17 03:07:19;;;;;;;0.25;0.25;;;9.30;99.90;;;;;;5037321;28;20513;-80
2023/11/17 03:09:51;;;;;;;0.22;0.22;;;9.30;99.90;;;;;;5037208;28;20128;-78
2023/11/17 03:12:19;;;;;;;0.30;0.30;;;9.20;99.90;;;;;;5031121;28;20056;-79
2023/11/17 03:14:46;;;;;;;0.30;0.30;;;9.20;99.90;;;;;;5049514;28;20045;-79
2023/11/17 03:17:12;;;;;;;0.20;0.20;;;9.20;99.90;;;;;;5044650;28;20486;-81
2023/11/17 03:19:40;;;;;;;0.57;0.20;;;9.10;99.90;;;;;;5043585;28;20044;-80
2023/11/17 03:22:07;;;;;;;0.60;0.20;;;9.10;99.90;;;;;;5037365;28;20053;-79
2023/11/17 03:24:35;;;;;;;0.30;0.30;;;9.10;99.90;;;;;;5034967;28;20076;-81
2023/11/17 03:27:02;;;;;;;0.30;0.30;;;9.10;99.90;;;;;;5030629;28;20041;-79
2023/11/17 03:29:31;;;;;;;1.33;0.30;;;9.10;99.90;;;;;;5046273;28;20073;-79
2023/11/17 03:31:59;;;;;;;0.85;0.73;;;9.10;99.90;;;;;;5044601;28;20055;-80
2023/11/17 03:34:31;;;;;;;0.38;0.38;;;9.10;99.90;;;;;;5042424;28;20426;-81
2023/11/17 03:37:00;;;;;;;0.30;0.30;;;9.20;99.90;;;;;;5036788;28;20049;-79
2023/11/17 03:39:41;;;;;;;0.30;0.30;;;9.20;99.90;;;;;;5034175;28;20057;-81
2023/11/17 03:42:15;;;;;;;0.75;0.40;;;9.20;99.90;;;;;;5037178;28;20117;-78
2023/11/17 03:44:42;;;;;;;0.30;0.30;;;9.20;99.90;;;;;;5049175;28;20041;-79
2023/11/17 03:47:09;;;;;;;2.28;0.40;;;9.30;99.90;;;;;;5043401;28;20049;-80
2023/11/17 03:49:36;;;;;;;0.30;0.30;;;9.30;99.90;;;;;;5041939;28;20046;-80
2023/11/17 03:52:04;;;;;;;0.95;0.40;;;9.30;99.90;;;;;;5037128;28;20414;-79
2023/11/17 03:54:32;;;;;;;1.55;0.50;;;9.30;99.90;;;;;;5034914;28;20053;-81
2023/11/17 03:57:03;;;;;;;0.50;0.50;;;9.30;99.90;;;;;;5041110;28;20048;-78
2023/11/17 03:59:30;;;;;;;0.30;0.30;;;9.30;99.90;;;;;;5050392;28;20053;-81
2023/11/17 04:01:57;;;;;;;0.80;0.65;;;9.40;99.90;;;;;;5047929;28;20135;-80
2023/11/17 04:04:25;;;;;;;1.85;0.45;;;9.40;99.90;;;;;;5041291;28;20077;-81
2023/11/17 04:06:57;;;;;;;0.30;0.30;;;9.40;99.90;;;;;;5041977;28;20041;-79
2023/11/17 04:09:25;;;;;;;0.50;0.50;;;9.40;99.90;;;;;;5036250;28;20092;-81
2023/11/17 04:11:53;;;;;;;1.63;0.50;;;9.40;99.90;;;;;;5047547;28;20067;-79
2023/11/17 04:14:21;;;;;;;0.40;0.40;;;9.50;99.90;;;;;;5048048;28;20060;-81
2023/11/17 04:16:49;;;;;;;0.45;0.40;;;9.40;99.90;;;;;;5049430;28;20488;-80
2023/11/17 04:19:20;;;;;;;0.40;0.40;;;9.50;99.90;;;;;;5042273;28;20057;-80
2023/11/17 04:21:49;;;;;;;1.98;0.43;;;9.50;99.90;;;;;;5040149;28;20076;-78
2023/11/17 04:24:16;;;;;;;0.40;0.40;;;9.50;99.90;;;;;;5039988;28;20073;-78
2023/11/17 04:26:44;;;;;;;1.27;0.60;;;9.50;99.90;;;;;;5046854;28;20125;-79
2023/11/17 04:29:11;;;;;;;0.40;0.40;;;9.50;99.90;;;;;;5042963;28;20049;-79
2023/11/17 04:31:38;;;;;;;1.20;0.60;;;9.50;99.90;;;;;;5046854;28;20420;-79
2023/11/17 04:34:05;;;;;;;0.40;0.40;;;9.50;99.90;;;;;;5042232;28;20109;-79
2023/11/17 04:36:32;;;;;;;0.55;0.30;;;9.50;99.90;;;;;;5039236;28;20053;-79
2023/11/17 04:39:00;;;;;;;2.60;0.50;;;9.50;99.90;;;;;;5036568;28;20045;-78
2023/11/17 04:41:27;;;;;;;0.40;0.40;;;9.50;99.90;;;;;;5064659;28;20050;-79
2023/11/17 04:43:54;;;;;;;0.50;0.50;;;9.50;99.90;;;;;;5050038;28;20079;-79
2023/11/17 04:46:21;;;;;;;0.73;0.40;;;9.50;99.90;;;;;;5044502;28;20072;-79
2023/11/17 04:48:49;;;;;;;0.60;0.40;;;9.50;99.90;;;;;;5044667;28;20048;-81
2023/11/17 04:51:16;;;;;;;1.60;0.60;;;9.50;99.90;;;;;;5039079;28;20056;-80
2023/11/17 04:53:43;;;;;;;0.40;0.40;;;9.50;99.90;;;;;;5037696;28;20045;-80
2023/11/17 04:56:13;;;;;;;1.38;0.60;;;9.60;99.90;;;;;;5047330;28;20053;-79
2023/11/17 04:58:40;;;;;;;0.60;0.60;;;9.60;99.90;;;;;;5049032;28;20081;-79
2023/11/17 05:01:06;;;;;;;1.05;0.75;;;9.60;99.90;;;;;;5039651;28;20045;-78
2023/11/17 05:03:35;;;;;;;1.00;0.50;;;9.60;99.90;;;;;;5040772;28;20050;-80
2023/11/17 05:06:06;;;;;;;0.70;0.60;;;9.50;99.90;;;;;;5044229;28;20045;-80
2023/11/17 05:08:35;;;;;;;1.08;0.70;;;9.50;99.90;;;;;;5036888;28;20429;-79
2023/11/17 05:11:04;;;;;;;0.63;0.50;;;9.40;99.90;;;;;;5052032;28;20381;-79
2023/11/17 05:13:35;;;;;;;0.50;0.50;;;9.40;99.90;;;;;;5049623;28;20076;-79
2023/11/17 05:16:03;;;;;;;1.15;0.80;;;9.40;99.90;;;;;;5048246;28;20068;-79
2023/11/17 05:18:30;;;;;;;0.40;0.40;;;9.40;99.90;;;;;;5044653;28;20061;-79
2023/11/17 05:20:57;;;;;;;0.70;0.70;;;9.40;99.90;;;;;;5042887;28;20042;-79
2023/11/17 05:23:24;;;;;;;2.28;0.60;;;9.40;99.90;;;;;;5037966;28;20046;-81
2023/11/17 05:25:51;;;;;;;1.77;0.82;;;9.40;99.90;;;;;;5055891;28;20386;-79
2023/11/17 05:28:20;;;;;;;0.70;0.70;;;9.40;99.90;;;;;;5049716;28;20050;-79
2023/11/17 05:30:47;;;;;;;4.03;0.85;;;9.40;99.90;;;;;;5048150;28;20045;-79
2023/11/17 05:33:18;;;;;;;0.52;0.50;;;9.40;99.90;;;;;;5043129;28;20108;-80
2023/11/17 05:35:45;;;;;;;0.45;0.45;;;9.40;99.90;;;;;;5042255;28;20048;-80
2023/11/17 05:38:12;;;;;;;1.63;0.60;;;9.40;99.90;;;;;;5043100;28;20057;-79
2023/11/17 05:40:40;;;;;;;0.85;0.80;;;9.40;99.90;;;;;;5045667;28;20464;-81
2023/11/17 05:43:07;;;;;;;1.95;0.80;;;9.40;99.90;;;;;;5038915;28;20065;-80
2023/11/17 05:45:34;;;;;;;1.20;1.10;;;9.40;99.90;;;;;;5042694;28;20121;-79
2023/11/17 05:48:05;;;;;;;1.33;0.90;;;9.40;99.90;;;;;;5038444;28;20041;-79
2023/11/17 05:50:33;;;;;;;0.80;0.80;;;9.40;99.90;;;;;;5031359;28;20517;-80
2023/11/17 05:53:00;;;;;;;1.15;1.08;;;9.30;99.90;;;;;;5041214;28;20052;-79
2023/11/17 05:55:26;;;;;;;1.88;1.10;;;9.40;99.90;;;;;;5043126;28;20049;-79
2023/11/17 05:57:53;;;;;;;1.70;0.70;;;9.40;99.90;;;;;;5042222;28;20099;-80
2023/11/17 06:00:20;;;;;;;5.70;0.80;;;9.40;99.90;;;;;;5037515;28;20050;-80
2023/11/17 06:02:47;;;;;;;2.67;0.88;;;9.30;99.90;;;;;;5051947;28;20044;-80
2023/11/17 06:05:15;;;;;;;1.58;1.20;;;9.30;99.90;;;;;;5031941;28;20056;-80
2023/11/17 06:07:41;;;;;;;1.90;1.27;;;9.30;99.90;;;;;;5055941;28;20049;-81
2023/11/17 06:10:09;;;;;;;1.55;0.95;;;9.30;99.90;;;;;;5047738;28;20579;-79
2023/11/17 06:12:36;;;;;;;2.55;1.80;;;9.30;99.90;;;;;;5046258;28;20060;-79
2023/11/17 06:15:05;;;;;;;3.03;1.77;;;9.30;99.90;;;;;;5041754;28;20045;-79
2023/11/17 06:17:32;;;;;;;1.83;1.23;;;9.30;99.90;;;;;;5037847;28;20049;-79
2023/11/17 06:20:00;;;;;;;0.73;0.73;;;9.30;99.90;;;;;;5034664;28;20059;-79
2023/11/17 06:22:27;;;;;;;1.52;0.80;;;9.30;99.90;;;;;;5052559;28;20045;-77
2023/11/17 06:24:55;;;;;;;1.63;0.90;;;9.30;99.90;;;;;;5046738;28;20041;-81
2023/11/17 06:27:23;;;;;;;2.58;0.70;;;9.30;99.90;;;;;;5041228;28;20048;-79
2023/11/17 06:29:50;;;;;;;1.33;0.80;;;9.30;99.90;;;;;;5041208;28;20139;-80
2023/11/17 06:32:16;;;;;;;1.83;1.00;;;9.30;99.90;;;;;;5035926;28;20467;-80
2023/11/17 06:34:46;;;;;;;1.15;0.80;;;9.30;99.90;;;;;;5033289;28;20077;-80
2023/11/17 06:37:13;;;;;;;0.88;0.80;;;9.30;99.90;;;;;;5043100;28;20045;-83
2023/11/17 06:39:40;;;;;;;0.60;0.60;;;9.20;99.90;;;;;;5045454;28;20054;-79
2023/11/17 06:42:07;;;;;;;1.20;0.70;;;9.20;99.90;;;;;;5042694;28;20064;-79
2023/11/17 06:44:34;;;;;;;0.52;0.52;;;9.20;99.90;;;;;;5037160;28;20073;-79
2023/11/17 06:47:06;;;;;;;1.38;0.55;;;9.30;99.90;;;;;;5030652;28;20125;-80
2023/11/17 06:49:33;;;;;;;0.73;0.60;;;9.30;99.90;;;;;;5045264;28;20046;-79
2023/11/17 06:52:01;;;;;;;1.52;0.68;;;9.20;99.90;;;;;;5042794;28;20060;-79
2023/11/17 06:54:29;;;;;;;0.80;0.63;;;9.20;99.90;;;;;;5048707;28;20085;-80
2023/11/17 06:56:56;;;;;;;0.82;0.80;;;9.30;99.90;;;;;;5044101;28;20048;-78
2023/11/17 06:59:23;;;;;;;0.73;0.65;;;9.30;99.90;;;;;;5036194;28;20576;-79
2023/11/17 07:01:49;;;;;;;0.82;0.70;;;9.30;99.90;;;;;;5037385;28;20080;-80
2023/11/17 07:04:19;;;;;;;1.02;0.70;;;9.30;99.90;;;;;;5031934;28;20045;-80
2023/11/17 07:06:47;;;;;;;0.63;0.60;;;9.30;99.90;;;;;;5048988;28;20056;-79
2023/11/17 07:09:19;;;;;;;0.75;0.75;;;9.30;99.90;;;;;;5045491;28;20072;-81
2023/11/17 07:11:47;;;;;;;0.70;0.70;;;9.30;99.90;;;;;;5043695;28;20046;-81
2023/11/17 07:14:19;;;;;;;0.60;0.60;;;9.30;99.90;;;;;;5041283;28;20052;-79
2023/11/17 07:16:47;;;;;;;0.60;0.60;;;9.30;99.90;;;;;;5035893;28;20437;-80
2023/11/17 07:19:17;;;;;;;1.73;0.75;;;9.30;99.90;;;;;;5029183;28;20049;-81
2023/11/17 07:21:47;;;;;;;2.40;1.05;;;9.30;99.90;;;;;;5047578;28;20050;-80
2023/11/17 07:24:18;;;;;;;2.03;1.20;;;9.30;99.90;;;;;;5043059;28;20359;-80
2023/11/17 07:26:46;;;;;;;1.27;1.00;;;9.30;99.90;;;;;;5041504;28;20042;-82
2023/11/17 07:29:13;;;;;;;1.20;1.10;;;9.30;99.90;;;;;;5042790;28;20068;-81
2023/11/17 07:31:45;;;;;;;2.10;1.10;;;9.30;99.90;;;;;;5039461;28;20050;-79
2023/11/17 07:34:16;;;;;;;1.85;0.90;;;9.30;99.90;;;;;;5041043;28;20140;-80
2023/11/17 07:36:47;;;;;;;0.82;0.70;;;9.30;99.90;;;;;;5052797;28;20498;-81
2023/11/17 07:39:18;;;;;;;1.00;0.80;;;9.30;99.90;;;;;;5047195;28;20049;-80
2023/11/17 07:41:46;;;;;;;1.45;0.63;;;9.30;99.90;;;;;;5050479;28;20056;-80
2023/11/17 07:44:13;;;;;;;3.13;0.80;;;9.30;99.90;;;;;;5043963;28;20056;-80
2023/11/17 07:46:40;;;;;;;1.10;0.77;;;9.30;99.90;;;;;;5044402;28;20490;-79
2023/11/17 07:49:10;;;;;;;0.93;0.80;;;9.30;99.90;;;;;;5039265;28;20103;-80
2023/11/17 07:51:37;;;;;;;0.68;0.68;;;9.30;99.90;;;;;;5049540;28;20037;-80
2023/11/17 07:54:04;;;;;;;1.05;0.80;;;9.30;99.90;;;;;;5047367;28;20048;-81
2023/11/17 07:56:31;;;;;;;1.98;0.75;;;9.40;99.90;;;;;;5041072;28;20146;-80
2023/11/17 07:59:03;;;;;;;2.75;0.73;;;9.40;99.90;;;;;;5040619;28;20049;-80
2023/11/17 08:01:30;;;;;;;1.10;0.85;;;9.40;99.90;;;;;;5034256;28;20054;-81
2023/11/17 08:03:57;;;;;;;1.20;0.90;;;9.40;99.90;;;;;;5046237;28;20053;-79
2023/11/17 08:06:24;;;;;;;1.08;0.90;;;9.40;99.90;;;;;;5049382;28;20109;-81
2023/11/17 08:08:53;;;;;;;1.13;0.80;;;9.40;99.90;;;;;;5049342;28;20045;-79
2023/11/17 08:11:22;;;;;;;1.40;1.00;;;9.40;99.90;;;;;;5048586;28;20072;-80
2023/11/17 08:13:49;;;;;;;0.55;0.55;;;9.40;99.90;;;;;;5040984;28;20049;-80
2023/11/17 08:16:17;;;;;;;0.55;0.52;;;9.40;99.90;;;;;;5035885;28;20045;-80
2023/11/17 08:18:49;;;;;;;2.10;0.90;;;9.40;99.90;;;;;;5043325;28;20049;-79
2023/11/17 08:21:16;;;;;;;0.88;0.68;;;9.40;99.90;;;;;;5046743;28;20144;-79
2023/11/17 08:23:44;;;;;;;0.60;0.60;;;9.40;99.90;;;;;;5046955;28;20045;-81
2023/11/17 08:26:15;;;;;;;0.68;0.60;;;9.50;99.90;;;;;;5043367;28;20055;-79
2023/11/17 08:28:42;;;;;;;0.90;0.68;;;9.50;99.90;;;;;;5038515;28;20084;-81
2023/11/17 08:31:12;;;;;;;0.70;0.70;;;9.50;99.90;;;;;;5033596;28;20057;-79
2023/11/17 08:33:39;;;;;;;0.88;0.77;;;9.50;99.90;;;;;;5047591;28;20041;-80
2023/11/17 08:36:09;;;;;;;0.98;0.77;;;9.50;99.90;;;;;;5047988;28;20041;-79
2023/11/17 08:38:43;;;;;;;2.65;1.48;;;9.50;99.90;;;;;;5044076;28;20058;-81
2023/11/17 08:41:10;;;;;;;1.10;0.90;;;9.50;99.90;;;;;;5036461;28;20060;-79
2023/11/17 08:43:38;;;;;;;2.55;1.02;;;9.50;99.90;;;;;;5034331;28;20050;-81
2023/11/17 08:46:06;;;;;;;1.40;1.02;;;9.40;99.90;;;;;;5038831;28;20045;-81
2023/11/17 08:48:35;;;;;;;2.03;1.13;;;9.40;99.90;;;;;;5045869;28;20041;-80
2023/11/17 08:51:02;;;;;;;1.25;0.80;;;9.40;99.90;;;;;;5048789;28;20041;-81
2023/11/17 08:53:29;;;;;;;2.15;0.70;;;9.50;99.90;;;;;;5041002;28;20060;-80
2023/11/17 08:55:57;;;;;;;1.13;0.70;;;9.40;99.90;;;;;;5040988;28;20057;-80
2023/11/17 08:58:23;;;;;;;2.53;0.80;;;9.40;99.90;;;;;;5036000;28;20049;-79
2023/11/17 09:00:50;;;;;;;1.23;0.88;;;9.40;99.90;;;;;;5035427;28;20077;-79
2023/11/17 09:03:21;;;;;;;1.63;0.75;;;9.40;99.90;;;;;;5049506;28;20132;-79
2023/11/17 09:05:48;;;;;;;1.35;0.88;;;9.50;99.90;;;;;;5047218;28;20050;-80
2023/11/17 09:08:16;;;;;;;1.15;0.75;;;9.50;99.90;;;;;;5037979;28;20128;-81
2023/11/17 09:10:43;;;;;;;1.17;0.70;;;9.50;99.90;;;;;;5039612;28;20050;-79
2023/11/17 09:13:11;;;;;;;0.68;0.60;;;9.40;99.90;;;;;;5037188;28;20152;-80
2023/11/17 09:15:38;;;;;;;0.60;0.60;;;9.50;99.90;;;;;;5048331;28;20049;-79
2023/11/17 09:18:07;;;;;;;0.82;0.50;;;9.50;99.90;;;;;;5050706;28;20041;-80
2023/11/17 09:20:36;;;;;;;0.80;0.70;;;9.60;99.90;;;;;;5045781;28;20064;-80
2023/11/17 09:23:03;;;;;;;1.05;0.88;;;9.60;99.90;;;;;;5043147;28;20435;-79
2023/11/17 09:25:29;;;;;;;1.00;0.60;;;9.60;99.90;;;;;;5036433;28;20104;-80
2023/11/17 09:28:02;;;;;;;0.98;0.70;;;9.60;99.90;;;;;;5038108;28;20068;-79
2023/11/17 09:30:30;;;;;;;1.05;0.70;;;9.60;99.90;;;;;;5045312;28;20049;-80
2023/11/17 09:32:59;;;;;;;1.00;0.90;;;9.70;99.90;;;;;;5049413;28;20048;-77
2023/11/17 09:35:27;;;;;;;0.50;0.50;;;9.70;99.90;;;;;;5043033;28;20085;-79
2023/11/17 09:37:59;;;;;;;1.02;0.60;;;9.80;99.90;;;;;;5042459;28;20118;-80
2023/11/17 09:40:29;;;;;;;0.80;0.60;;;9.80;99.90;;;;;;5036398;28;20081;-79
2023/11/17 09:42:58;;;;;;;2.17;0.57;;;9.90;99.90;;;;;;5041456;28;20053;-79
2023/11/17 09:45:26;;;;;;;1.02;0.70;;;9.90;99.90;;;;;;5035992;28;20068;-80
2023/11/17 09:47:58;;;;;;;0.50;0.50;;;9.90;99.90;;;;;;5050495;28;20464;-80
2023/11/17 09:50:27;;;;;;;0.70;0.70;;;10.00;99.90;;;;;;5035521;28;20046;-80
2023/11/17 09:52:57;;;;;;;1.65;0.77;;;10.00;99.90;;;;;;5042899;28;20052;-80
2023/11/17 09:55:31;;;;;;;2.60;1.10;;;9.90;99.90;;;;;;5040605;28;20084;-80
2023/11/17 09:58:04;;;;;;;1.83;0.98;;;10.00;99.90;;;;;;5035253;28;20129;-79
2023/11/17 10:00:32;;;;;;;1.58;0.80;;;9.90;99.90;;;;;;5044793;28;20068;-79
2023/11/17 10:03:02;;;;;;;1.02;0.75;;;9.90;99.90;;;;;;5044982;28;20044;-80
2023/11/17 10:05:31;;;;;;;;;;;9.90;99.90;;;;;;5043003;28;20049;-80
2023/11/17 10:08:04;;;;;;;1.38;0.68;;;9.90;99.90;;;;;;5057475;28;20001;-80
2023/11/17 10:10:37;;;;;;;1.05;0.77;;;9.90;99.90;;;;;;5035105;28;20073;-80
2023/11/17 10:13:11;;;;;;;1.13;0.73;;;9.80;99.90;;;;;;5034893;28;20041;-80
2023/11/17 10:15:44;;;;;;;2.20;0.70;;;9.80;99.90;;;;;;5041205;28;20057;-81
2023/11/17 10:18:26;;;;;;;3.42;1.30;;;9.80;99.90;;;;;;5046346;28;20135;-81
2023/11/17 10:20:54;;;;;;;2.50;1.50;;;9.80;99.90;;;;;;5041903;28;20064;-79
2023/11/17 10:23:21;;;;;;;1.63;1.40;;;9.80;99.90;;;;;;5038535;28;20112;-82
2023/11/17 10:25:54;;;;;;;1.98;1.10;;;9.80;99.90;;;;;;5055069;28;20046;-80
2023/11/17 10:28:24;;;;;;;3.33;1.52;;;9.80;99.90;;;;;;5040088;28;20041;-81
2023/11/17 10:30:54;;;;;;;2.17;1.20;;;9.80;99.90;;;;;;5047014;28;20045;-82
2023/11/17 10:33:40;;;;;;;1.30;1.10;;;9.80;99.90;;;;;;5038595;28;20084;-81
2023/11/17 10:36:12;;;;;;;2.40;1.15;;;9.80;99.90;;;;;;5039915;28;20056;-81
2023/11/17 10:38:42;;;;;;;3.08;1.20;;;9.80;99.90;;;;;;5036226;28;20115;-79
2023/11/17 10:41:30;;;;;;;1.92;1.17;;;9.80;99.90;;;;;;5036087;28;20116;-80
2023/11/17 10:43:59;;;;;;;2.80;1.20;;;9.80;99.90;;;;;;5045272;28;20531;-80
2023/11/17 10:46:29;;;;;;;3.53;1.40;;;9.80;99.90;;;;;;5044964;28;20049;-82
2023/11/17 10:49:00;;;;;;;;;;;9.80;99.90;;;;;;5051004;28;20052;-81
2023/11/17 10:51:27;;;;;;;;;;;9.80;99.90;;;;;;5036428;28;19929;-79
2023/11/17 10:54:06;;;;;;;1.40;1.10;;;9.80;99.90;;;;;;5058743;28;19921;-81
2023/11/17 10:56:33;;;;;;;2.15;1.77;;;9.80;99.90;;;;;;5042305;28;20054;-81
2023/11/17 10:59:02;;;;;;;4.55;1.80;;;9.80;99.90;;;;;;5051349;28;20052;-80
2023/11/17 11:01:35;;;;;;;2.30;1.38;;;9.90;99.90;;;;;;5030530;28;20057;-81
2023/11/17 11:04:38;;;;;;;3.17;1.42;;;10.00;99.90;;;;;;5043993;28;20041;-81
2023/11/17 11:07:00;;;;;;;3.25;1.23;;;10.00;99.90;;;;;;5037263;28;20063;-80
2023/11/17 11:09:36;;;;;;;1.85;1.40;;;10.00;99.90;;;;;;5037616;28;20496;-80
2023/11/17 11:12:08;;;;;;;2.60;1.30;;;10.10;99.90;;;;;;5041975;28;20068;-81
2023/11/17 11:14:40;;;;;;;2.65;1.13;;;10.20;99.90;;;;;;5035855;28;20052;-81
2023/11/17 11:17:09;;;;;;;1.15;0.98;;;10.20;99.90;;;;;;5055319;28;20066;-81
2023/11/17 11:19:38;;;;;;;3.45;1.23;;;10.30;99.90;;;;;;5042739;28;20148;-81
2023/11/17 11:22:24;;;;;;;2.28;1.00;;;10.40;99.90;;;;;;5039817;28;20498;-81
2023/11/17 11:24:52;;;;;;;4.75;1.30;;;10.50;99.90;;;;;;5030163;28;20422;-80
2023/11/17 11:27:21;;;;;;;1.70;1.00;;;10.60;99.90;;;;;;5023981;28;20150;-80
2023/11/17 11:29:49;;;;;;;4.97;1.02;;;10.60;99.90;;;;;;5047653;28;20045;-80
2023/11/17 11:32:16;;;;;;;4.13;1.40;;;10.50;99.90;;;;;;5038599;28;20429;-80
2023/11/17 11:34:43;;;;;;;2.00;1.00;;;10.40;99.90;;;;;;5033376;28;20100;-80
2023/11/17 11:37:10;;;;;;;1.45;1.13;;;10.40;99.90;;;;;;5037456;28;20045;-80
2023/11/17 11:39:37;;;;;;;2.78;1.17;;;10.40;99.90;;;;;;5032417;28;20050;-80
2023/11/17 11:42:06;;;;;;;3.67;1.50;;;10.40;99.90;;;;;;5036074;28;20041;-79
2023/11/17 11:44:34;;;;;;;1.00;0.80;;;10.50;99.90;;;;;;5043688;28;20045;-81
2023/11/17 11:47:03;;;;;;;4.78;1.00;;;10.50;99.90;;;;;;5051020;28;20424;-81
2023/11/17 11:49:32;;;;;;;0.93;0.80;;;10.50;99.90;;;;;;5033116;28;20045;-80
2023/11/17 11:52:11;;;;;;;2.60;0.90;;;10.50;99.90;;;;;;5030713;28;20054;-80
2023/11/17 11:54:38;;;;;;;0.80;0.80;;;10.50;99.90;;;;;;5024952;28;20056;-79
2023/11/17 11:57:27;;;;;;;1.80;0.80;;;10.50;99.90;;;;;;5043889;28;20095;-80
2023/11/17 12:00:12;;;;;;;5.07;1.40;;;10.40;99.90;;;;;;5051894;28;20046;-80
2023/11/17 12:03:01;;;;;;;2.00;0.95;;;10.40;99.90;;;;;;5040434;28;20077;-81
2023/11/17 12:05:31;;;;;;;0.75;0.70;;;10.40;99.90;;;;;;5035842;28;20050;-81
2023/11/17 12:07:59;;;;;;;1.50;0.90;;;10.40;99.90;;;;;;5040230;28;20046;-80
2023/11/17 12:10:46;;;;;;;1.02;0.77;;;10.50;99.90;;;;;;5042871;28;20106;-80
2023/11/17 12:13:48;;;;;;;0.82;0.60;;;10.50;99.90;;;;;;5041061;28;20113;-79
2023/11/17 12:16:28;;;;;;;1.42;0.70;;;10.50;99.90;;;;;;5043662;28;20053;-79
2023/11/17 12:18:58;;;;;;;3.95;1.20;;;10.60;99.90;;;;;;5043027;28;20045;-79
2023/11/17 12:21:26;;;;;;;1.45;1.00;;;10.60;99.90;;;;;;5048036;28;20428;-80
2023/11/17 12:23:58;;;;;;;2.67;0.80;;;10.60;99.90;;;;;;5040564;28;20052;-81
2023/11/17 12:26:27;;;;;;;1.02;0.95;;;10.60;99.90;;;;;;5053533;28;20115;-80
2023/11/17 12:28:55;;;;;;;2.72;1.52;;;10.50;99.90;;;;;;5047260;28;20046;-81
2023/11/17 12:31:22;;;;;;;2.28;1.15;;;10.50;99.90;;;;;;5040873;28;20111;-79
2023/11/17 12:33:51;;;;;;;1.50;0.73;;;10.50;99.90;;;;;;5037912;28;20556;-80
2023/11/17 12:36:20;;;;;;;2.17;0.68;;;10.50;99.90;;;;;;5046698;28;20057;-79
2023/11/17 12:38:55;;;;;;;1.23;1.05;;;10.40;99.90;;;;;;5041685;28;20312;-81
2023/11/17 12:41:25;;;;;;;2.88;0.88;;;10.40;99.90;;;;;;5049097;28;20076;-79
2023/11/17 12:43:55;;;;;;;0.88;0.75;;;10.40;99.90;;;;;;5047704;28;20049;-80
2023/11/17 12:46:30;;;;;;;3.72;1.05;;;10.40;99.90;;;;;;5042474;28;20052;-79
2023/11/17 12:48:58;;;;;;;1.27;0.65;;;10.40;99.90;;;;;;5041315;28;20045;-80
2023/11/17 12:51:29;;;;;;;1.60;0.93;;;10.50;99.90;;;;;;5035305;28;20052;-81
2023/11/17 12:53:59;;;;;;;5.40;1.63;;;10.50;99.90;;;;;;5048507;28;20110;-81
2023/11/17 12:56:26;;;;;;;2.28;0.85;;;10.40;99.90;;;;;;5050940;28;20049;-81
2023/11/17 12:58:54;;;;;;;3.05;1.33;;;10.40;99.90;;;;;;5050607;28;20050;-80
2023/11/17 13:01:22;;;;;;;0.88;0.70;;;10.40;99.90;;;;;;5041489;28;20566;-79
2023/11/17 13:03:58;;;;;;;1.35;0.70;;;10.50;99.90;;;;;;5036032;28;20050;-79
2023/11/17 13:06:27;;;;;;;1.48;0.80;;;10.40;99.90;;;;;;5040420;28;20046;-81